sensor_id;sensor_type;location;lat;lon;timestamp;P1;durP1;ratioP1;P2;durP2;ratioP2
20334;SDS011;10325;51.468;5.804;2023-03-02T00:02:09;3.10;;;2.27;;
20334;SDS011;10325;51.468;5.804;2023-03-02T00:04:51;4.97;;;2.40;;
20334;SDS011;10325;51.468;5.804;2023-03-02T00:07:27;2.97;;;2.40;;
20334;SDS011;10325;51.468;5.804;2023-03-02T00:10:00;2.37;;;1.77;;
20334;SDS011;10325;51.468;5.804;2023-03-02T00:12:30;3.07;;;2.20;;
20334;SDS011;10325;51.468;5.804;2023-03-02T00:15:03;2.27;;;1.87;;
20334;SDS011;10325;51.468;5.804;2023-03-02T00:17:32;2.53;;;2.00;;
20334;SDS011;10325;51.468;5.804;2023-03-02T00:20:02;4.00;;;2.00;;
20334;SDS011;10325;51.468;5.804;2023-03-02T00:22:42;2.20;;;1.77;;
20334;SDS011;10325;51.468;5.804;2023-03-02T00:25:17;2.20;;;2.00;;
20334;SDS011;10325;51.468;5.804;2023-03-02T00:27:53;2.70;;;2.33;;
20334;SDS011;10325;51.468;5.804;2023-03-02T00:30:22;3.53;;;2.53;;
20334;SDS011;10325;51.468;5.804;2023-03-02T00:32:50;2.40;;;2.10;;
20334;SDS011;10325;51.468;5.804;2023-03-02T00:35:20;2.23;;;1.90;;
20334;SDS011;10325;51.468;5.804;2023-03-02T00:37:51;2.23;;;1.53;;
20334;SDS011;10325;51.468;5.804;2023-03-02T00:40:24;3.63;;;2.20;;
20334;SDS011;10325;51.468;5.804;2023-03-02T00:42:57;2.53;;;1.97;;
20334;SDS011;10325;51.468;5.804;2023-03-02T00:45:28;2.53;;;2.33;;
20334;SDS011;10325;51.468;5.804;2023-03-02T00:48:00;3.07;;;2.20;;
20334;SDS011;10325;51.468;5.804;2023-03-02T00:50:29;2.63;;;2.00;;
20334;SDS011;10325;51.468;5.804;2023-03-02T00:52:57;1.73;;;1.50;;
20334;SDS011;10325;51.468;5.804;2023-03-02T00:55:29;3.23;;;2.40;;
20334;SDS011;10325;51.468;5.804;2023-03-02T00:58:00;2.47;;;1.83;;
20334;SDS011;10325;51.468;5.804;2023-03-02T01:00:32;2.90;;;2.13;;
20334;SDS011;10325;51.468;5.804;2023-03-02T01:03:05;2.57;;;1.97;;
20334;SDS011;10325;51.468;5.804;2023-03-02T01:05:42;2.80;;;2.17;;
20334;SDS011;10325;51.468;5.804;2023-03-02T01:08:11;2.13;;;1.93;;
20334;SDS011;10325;51.468;5.804;2023-03-02T01:10:40;2.00;;;1.80;;
20334;SDS011;10325;51.468;5.804;2023-03-02T01:13:12;2.23;;;2.03;;
20334;SDS011;10325;51.468;5.804;2023-03-02T01:15:42;1.60;;;1.50;;
20334;SDS011;10325;51.468;5.804;2023-03-02T01:18:16;2.03;;;1.67;;
20334;SDS011;10325;51.468;5.804;2023-03-02T01:20:48;2.53;;;2.00;;
20334;SDS011;10325;51.468;5.804;2023-03-02T01:23:29;2.33;;;1.67;;
20334;SDS011;10325;51.468;5.804;2023-03-02T01:26:00;2.60;;;2.20;;
20334;SDS011;10325;51.468;5.804;2023-03-02T01:28:29;2.13;;;1.90;;
20334;SDS011;10325;51.468;5.804;2023-03-02T01:30:57;1.97;;;1.77;;
20334;SDS011;10325;51.468;5.804;2023-03-02T01:33:31;1.93;;;1.80;;
20334;SDS011;10325;51.468;5.804;2023-03-02T01:36:05;1.90;;;1.67;;
20334;SDS011;10325;51.468;5.804;2023-03-02T01:38:38;4.43;;;2.10;;
20334;SDS011;10325;51.468;5.804;2023-03-02T01:41:07;2.20;;;1.83;;
20334;SDS011;10325;51.468;5.804;2023-03-02T01:43:38;2.20;;;2.00;;
20334;SDS011;10325;51.468;5.804;2023-03-02T01:46:12;1.90;;;1.67;;
20334;SDS011;10325;51.468;5.804;2023-03-02T01:48:49;3.40;;;1.50;;
20334;SDS011;10325;51.468;5.804;2023-03-02T01:51:42;1.50;;;1.40;;
20334;SDS011;10325;51.468;5.804;2023-03-02T01:54:18;3.40;;;1.80;;
20334;SDS011;10325;51.468;5.804;2023-03-02T01:56:53;4.73;;;1.93;;
20334;SDS011;10325;51.468;5.804;2023-03-02T01:59:26;2.10;;;1.67;;
20334;SDS011;10325;51.468;5.804;2023-03-02T02:01:57;2.33;;;1.50;;
20334;SDS011;10325;51.468;5.804;2023-03-02T02:04:30;1.97;;;1.77;;
20334;SDS011;10325;51.468;5.804;2023-03-02T02:07:05;2.57;;;2.07;;
20334;SDS011;10325;51.468;5.804;2023-03-02T02:09:39;1.90;;;1.70;;
20334;SDS011;10325;51.468;5.804;2023-03-02T02:12:20;2.57;;;1.90;;
20334;SDS011;10325;51.468;5.804;2023-03-02T02:14:54;2.27;;;1.87;;
20334;SDS011;10325;51.468;5.804;2023-03-02T02:17:30;1.60;;;1.50;;
20334;SDS011;10325;51.468;5.804;2023-03-02T02:26:12;1.97;;;1.83;;
20334;SDS011;10325;51.468;5.804;2023-03-02T02:28:59;1.77;;;1.60;;
20334;SDS011;10325;51.468;5.804;2023-03-02T02:32:49;1.63;;;1.53;;
20334;SDS011;10325;51.468;5.804;2023-03-02T02:35:01;1.80;;;1.60;;
20334;SDS011;10325;51.468;5.804;2023-03-02T02:38:04;2.33;;;1.60;;
20334;SDS011;10325;51.468;5.804;2023-03-02T02:40:48;2.17;;;1.77;;
20334;SDS011;10325;51.468;5.804;2023-03-02T02:43:27;2.03;;;1.83;;
20334;SDS011;10325;51.468;5.804;2023-03-02T02:46:04;2.33;;;2.13;;
20334;SDS011;10325;51.468;5.804;2023-03-02T02:48:38;2.67;;;2.03;;
20334;SDS011;10325;51.468;5.804;2023-03-02T02:51:11;1.97;;;1.80;;
20334;SDS011;10325;51.468;5.804;2023-03-02T02:56:31;4.63;;;2.10;;
20334;SDS011;10325;51.468;5.804;2023-03-02T02:59:07;2.07;;;1.70;;
20334;SDS011;10325;51.468;5.804;2023-03-02T03:02:00;1.87;;;1.50;;
20334;SDS011;10325;51.468;5.804;2023-03-02T03:04:29;4.57;;;1.70;;
20334;SDS011;10325;51.468;5.804;2023-03-02T03:07:04;2.83;;;1.90;;
20334;SDS011;10325;51.468;5.804;2023-03-02T03:09:34;2.33;;;1.90;;
20334;SDS011;10325;51.468;5.804;2023-03-02T03:12:15;2.47;;;1.83;;
20334;SDS011;10325;51.468;5.804;2023-03-02T03:14:56;2.20;;;1.83;;
20334;SDS011;10325;51.468;5.804;2023-03-02T03:17:31;1.70;;;1.60;;
20334;SDS011;10325;51.468;5.804;2023-03-02T03:20:01;2.07;;;1.87;;
20334;SDS011;10325;51.468;5.804;2023-03-02T03:22:34;2.67;;;2.10;;
20334;SDS011;10325;51.468;5.804;2023-03-02T03:25:06;5.00;;;1.50;;
20334;SDS011;10325;51.468;5.804;2023-03-02T03:27:35;2.03;;;1.80;;
20334;SDS011;10325;51.468;5.804;2023-03-02T03:30:06;1.90;;;1.70;;
20334;SDS011;10325;51.468;5.804;2023-03-02T03:32:38;2.07;;;1.77;;
20334;SDS011;10325;51.468;5.804;2023-03-02T03:35:10;2.30;;;1.70;;
20334;SDS011;10325;51.468;5.804;2023-03-02T03:37:41;3.53;;;1.90;;
20334;SDS011;10325;51.468;5.804;2023-03-02T03:40:14;2.10;;;1.53;;
20334;SDS011;10325;51.468;5.804;2023-03-02T03:42:48;2.77;;;2.07;;
20334;SDS011;10325;51.468;5.804;2023-03-02T03:45:20;2.27;;;1.60;;
20334;SDS011;10325;51.468;5.804;2023-03-02T03:47:52;1.50;;;1.40;;
20334;SDS011;10325;51.468;5.804;2023-03-02T03:50:22;1.97;;;1.73;;
20334;SDS011;10325;51.468;5.804;2023-03-02T03:52:52;3.77;;;1.93;;
20334;SDS011;10325;51.468;5.804;2023-03-02T03:55:24;2.20;;;1.63;;
20334;SDS011;10325;51.468;5.804;2023-03-02T03:57:57;1.90;;;1.80;;
20334;SDS011;10325;51.468;5.804;2023-03-02T04:00:28;2.50;;;1.80;;
20334;SDS011;10325;51.468;5.804;2023-03-02T04:02:59;2.30;;;1.60;;
20334;SDS011;10325;51.468;5.804;2023-03-02T04:05:31;1.90;;;1.70;;
20334;SDS011;10325;51.468;5.804;2023-03-02T04:08:03;1.63;;;1.53;;
20334;SDS011;10325;51.468;5.804;2023-03-02T04:10:36;2.03;;;1.83;;
20334;SDS011;10325;51.468;5.804;2023-03-02T04:13:08;2.43;;;1.70;;
20334;SDS011;10325;51.468;5.804;2023-03-02T04:15:40;1.30;;;1.20;;
20334;SDS011;10325;51.468;5.804;2023-03-02T04:18:13;2.40;;;2.17;;
20334;SDS011;10325;51.468;5.804;2023-03-02T04:20:50;1.90;;;1.70;;
20334;SDS011;10325;51.468;5.804;2023-03-02T04:23:22;3.37;;;2.60;;
20334;SDS011;10325;51.468;5.804;2023-03-02T04:25:55;2.30;;;2.10;;
20334;SDS011;10325;51.468;5.804;2023-03-02T04:28:26;1.60;;;1.50;;
20334;SDS011;10325;51.468;5.804;2023-03-02T04:30:54;1.77;;;1.67;;
20334;SDS011;10325;51.468;5.804;2023-03-02T04:33:24;1.73;;;1.63;;
20334;SDS011;10325;51.468;5.804;2023-03-02T04:35:56;2.63;;;2.33;;
20334;SDS011;10325;51.468;5.804;2023-03-02T04:38:35;2.90;;;1.93;;
20334;SDS011;10325;51.468;5.804;2023-03-02T04:41:11;3.30;;;2.10;;
20334;SDS011;10325;51.468;5.804;2023-03-02T04:43:40;2.30;;;2.10;;
20334;SDS011;10325;51.468;5.804;2023-03-02T04:46:15;2.77;;;2.30;;
20334;SDS011;10325;51.468;5.804;2023-03-02T04:48:52;2.50;;;1.80;;
20334;SDS011;10325;51.468;5.804;2023-03-02T04:51:28;2.47;;;2.10;;
20334;SDS011;10325;51.468;5.804;2023-03-02T04:54:16;2.93;;;2.40;;
20334;SDS011;10325;51.468;5.804;2023-03-02T04:56:50;2.50;;;2.07;;
20334;SDS011;10325;51.468;5.804;2023-03-02T04:59:25;2.50;;;2.30;;
20334;SDS011;10325;51.468;5.804;2023-03-02T05:01:58;2.63;;;2.23;;
20334;SDS011;10325;51.468;5.804;2023-03-02T05:04:30;3.70;;;2.67;;
20334;SDS011;10325;51.468;5.804;2023-03-02T05:07:03;2.33;;;2.13;;
20334;SDS011;10325;51.468;5.804;2023-03-02T05:09:34;3.83;;;2.20;;
20334;SDS011;10325;51.468;5.804;2023-03-02T05:12:04;2.77;;;1.90;;
20334;SDS011;10325;51.468;5.804;2023-03-02T05:14:35;4.03;;;2.00;;
20334;SDS011;10325;51.468;5.804;2023-03-02T05:17:09;3.23;;;2.23;;
20334;SDS011;10325;51.468;5.804;2023-03-02T05:19:41;2.70;;;2.40;;
20334;SDS011;10325;51.468;5.804;2023-03-02T05:22:09;4.07;;;2.50;;
20334;SDS011;10325;51.468;5.804;2023-03-02T05:24:40;3.70;;;2.10;;
20334;SDS011;10325;51.468;5.804;2023-03-02T05:27:11;2.40;;;2.20;;
20334;SDS011;10325;51.468;5.804;2023-03-02T05:29:41;2.50;;;2.10;;
20334;SDS011;10325;51.468;5.804;2023-03-02T05:32:13;3.40;;;2.30;;
20334;SDS011;10325;51.468;5.804;2023-03-02T05:34:44;2.80;;;2.40;;
20334;SDS011;10325;51.468;5.804;2023-03-02T05:37:15;3.27;;;2.30;;
20334;SDS011;10325;51.468;5.804;2023-03-02T05:39:46;2.73;;;2.50;;
20334;SDS011;10325;51.468;5.804;2023-03-02T05:42:26;2.67;;;2.43;;
20334;SDS011;10325;51.468;5.804;2023-03-02T05:44:58;2.80;;;2.33;;
20334;SDS011;10325;51.468;5.804;2023-03-02T05:47:30;4.37;;;2.47;;
20334;SDS011;10325;51.468;5.804;2023-03-02T05:50:02;3.00;;;2.70;;
20334;SDS011;10325;51.468;5.804;2023-03-02T05:52:32;3.93;;;2.70;;
20334;SDS011;10325;51.468;5.804;2023-03-02T05:55:01;3.67;;;3.10;;
20334;SDS011;10325;51.468;5.804;2023-03-02T05:57:30;4.43;;;3.07;;
20334;SDS011;10325;51.468;5.804;2023-03-02T06:00:02;3.37;;;3.03;;
20334;SDS011;10325;51.468;5.804;2023-03-02T06:02:38;3.30;;;3.00;;
20334;SDS011;10325;51.468;5.804;2023-03-02T06:05:07;3.37;;;3.07;;
20334;SDS011;10325;51.468;5.804;2023-03-02T06:07:37;4.00;;;3.00;;
20334;SDS011;10325;51.468;5.804;2023-03-02T06:10:10;4.57;;;3.40;;
20334;SDS011;10325;51.468;5.804;2023-03-02T06:12:39;3.40;;;3.10;;
20334;SDS011;10325;51.468;5.804;2023-03-02T06:15:09;3.60;;;3.13;;
20334;SDS011;10325;51.468;5.804;2023-03-02T06:17:39;4.63;;;3.73;;
20334;SDS011;10325;51.468;5.804;2023-03-02T06:20:12;7.50;;;3.73;;
20334;SDS011;10325;51.468;5.804;2023-03-02T06:22:46;4.57;;;3.70;;
20334;SDS011;10325;51.468;5.804;2023-03-02T06:25:14;4.33;;;3.47;;
20334;SDS011;10325;51.468;5.804;2023-03-02T06:27:54;5.10;;;3.90;;
20334;SDS011;10325;51.468;5.804;2023-03-02T06:30:24;4.97;;;4.17;;
20334;SDS011;10325;51.468;5.804;2023-03-02T06:32:56;4.53;;;3.93;;
20334;SDS011;10325;51.468;5.804;2023-03-02T06:35:26;5.97;;;4.43;;
20334;SDS011;10325;51.468;5.804;2023-03-02T06:37:54;6.27;;;4.17;;
20334;SDS011;10325;51.468;5.804;2023-03-02T06:40:26;4.90;;;4.37;;
20334;SDS011;10325;51.468;5.804;2023-03-02T06:42:55;7.87;;;4.33;;
20334;SDS011;10325;51.468;5.804;2023-03-02T06:45:30;5.57;;;5.00;;
20334;SDS011;10325;51.468;5.804;2023-03-02T06:48:01;17.93;;;5.30;;
20334;SDS011;10325;51.468;5.804;2023-03-02T06:50:30;5.33;;;4.83;;
20334;SDS011;10325;51.468;5.804;2023-03-02T06:53:03;5.70;;;4.70;;
20334;SDS011;10325;51.468;5.804;2023-03-02T06:55:34;5.63;;;4.63;;
20334;SDS011;10325;51.468;5.804;2023-03-02T06:58:05;5.67;;;4.77;;
20334;SDS011;10325;51.468;5.804;2023-03-02T07:00:35;5.43;;;4.47;;
20334;SDS011;10325;51.468;5.804;2023-03-02T07:03:04;4.90;;;4.40;;
20334;SDS011;10325;51.468;5.804;2023-03-02T07:05:37;5.83;;;5.17;;
20334;SDS011;10325;51.468;5.804;2023-03-02T07:08:05;5.93;;;5.33;;
20334;SDS011;10325;51.468;5.804;2023-03-02T07:10:35;7.67;;;5.40;;
20334;SDS011;10325;51.468;5.804;2023-03-02T07:13:08;5.13;;;4.43;;
20334;SDS011;10325;51.468;5.804;2023-03-02T07:15:39;5.67;;;5.10;;
20334;SDS011;10325;51.468;5.804;2023-03-02T07:18:12;6.33;;;4.90;;
20334;SDS011;10325;51.468;5.804;2023-03-02T07:20:42;6.13;;;5.07;;
20334;SDS011;10325;51.468;5.804;2023-03-02T07:23:14;6.33;;;5.00;;
20334;SDS011;10325;51.468;5.804;2023-03-02T07:25:44;5.67;;;5.07;;
20334;SDS011;10325;51.468;5.804;2023-03-02T07:28:13;6.43;;;5.40;;
20334;SDS011;10325;51.468;5.804;2023-03-02T07:30:45;6.67;;;4.80;;
20334;SDS011;10325;51.468;5.804;2023-03-02T07:33:12;7.03;;;5.43;;
20334;SDS011;10325;51.468;5.804;2023-03-02T07:35:48;8.50;;;5.77;;
20334;SDS011;10325;51.468;5.804;2023-03-02T07:38:17;6.57;;;5.67;;
20334;SDS011;10325;51.468;5.804;2023-03-02T07:40:48;5.50;;;4.90;;
20334;SDS011;10325;51.468;5.804;2023-03-02T07:43:32;5.73;;;4.70;;
20334;SDS011;10325;51.468;5.804;2023-03-02T07:46:06;6.77;;;5.47;;
20334;SDS011;10325;51.468;5.804;2023-03-02T07:48:37;6.40;;;5.67;;
20334;SDS011;10325;51.468;5.804;2023-03-02T07:51:06;7.30;;;5.50;;
20334;SDS011;10325;51.468;5.804;2023-03-02T07:53:39;6.97;;;6.00;;
20334;SDS011;10325;51.468;5.804;2023-03-02T07:56:07;6.90;;;5.73;;
20334;SDS011;10325;51.468;5.804;2023-03-02T07:58:35;5.93;;;5.30;;
20334;SDS011;10325;51.468;5.804;2023-03-02T08:01:06;7.63;;;6.03;;
20334;SDS011;10325;51.468;5.804;2023-03-02T08:03:36;6.57;;;5.57;;
20334;SDS011;10325;51.468;5.804;2023-03-02T08:06:06;6.03;;;5.07;;
20334;SDS011;10325;51.468;5.804;2023-03-02T08:08:41;52.43;;;15.00;;
20334;SDS011;10325;51.468;5.804;2023-03-02T08:11:18;53.20;;;15.13;;
20334;SDS011;10325;51.468;5.804;2023-03-02T08:13:48;41.57;;;12.37;;
20334;SDS011;10325;51.468;5.804;2023-03-02T08:16:20;47.83;;;12.20;;
20334;SDS011;10325;51.468;5.804;2023-03-02T08:18:53;36.43;;;10.87;;
20334;SDS011;10325;51.468;5.804;2023-03-02T08:21:27;31.23;;;10.27;;
20334;SDS011;10325;51.468;5.804;2023-03-02T08:23:57;32.43;;;10.57;;
20334;SDS011;10325;51.468;5.804;2023-03-02T08:26:31;30.63;;;9.30;;
20334;SDS011;10325;51.468;5.804;2023-03-02T08:29:03;24.87;;;8.63;;
20334;SDS011;10325;51.468;5.804;2023-03-02T08:31:36;25.90;;;9.73;;
20334;SDS011;10325;51.468;5.804;2023-03-02T08:34:05;18.87;;;7.87;;
20334;SDS011;10325;51.468;5.804;2023-03-02T08:36:39;25.10;;;8.03;;
20334;SDS011;10325;51.468;5.804;2023-03-02T08:39:12;17.80;;;7.10;;
20334;SDS011;10325;51.468;5.804;2023-03-02T08:41:40;18.90;;;6.53;;
20334;SDS011;10325;51.468;5.804;2023-03-02T08:44:11;17.77;;;6.57;;
20334;SDS011;10325;51.468;5.804;2023-03-02T08:46:41;13.00;;;6.27;;
20334;SDS011;10325;51.468;5.804;2023-03-02T08:49:11;16.17;;;6.00;;
20334;SDS011;10325;51.468;5.804;2023-03-02T08:51:41;15.67;;;6.17;;
20334;SDS011;10325;51.468;5.804;2023-03-02T08:54:14;17.03;;;5.67;;
20334;SDS011;10325;51.468;5.804;2023-03-02T08:56:43;13.97;;;5.57;;
20334;SDS011;10325;51.468;5.804;2023-03-02T08:59:18;9.80;;;5.43;;
20334;SDS011;10325;51.468;5.804;2023-03-02T09:01:51;9.83;;;5.03;;
20334;SDS011;10325;51.468;5.804;2023-03-02T09:04:20;7.87;;;4.57;;
20334;SDS011;10325;51.468;5.804;2023-03-02T09:06:51;7.53;;;4.50;;
20334;SDS011;10325;51.468;5.804;2023-03-02T09:09:21;12.47;;;5.50;;
20334;SDS011;10325;51.468;5.804;2023-03-02T09:11:52;6.93;;;3.97;;
20334;SDS011;10325;51.468;5.804;2023-03-02T09:14:23;7.83;;;4.70;;
20334;SDS011;10325;51.468;5.804;2023-03-02T09:17:00;9.27;;;4.40;;
20334;SDS011;10325;51.468;5.804;2023-03-02T09:19:32;5.00;;;4.00;;
20334;SDS011;10325;51.468;5.804;2023-03-02T09:22:12;6.50;;;4.00;;
20334;SDS011;10325;51.468;5.804;2023-03-02T09:24:43;5.60;;;4.00;;
20334;SDS011;10325;51.468;5.804;2023-03-02T09:27:13;6.93;;;4.03;;
20334;SDS011;10325;51.468;5.804;2023-03-02T09:29:45;5.87;;;3.90;;
20334;SDS011;10325;51.468;5.804;2023-03-02T09:32:13;7.90;;;4.57;;
20334;SDS011;10325;51.468;5.804;2023-03-02T09:34:41;5.43;;;3.50;;
20334;SDS011;10325;51.468;5.804;2023-03-02T09:37:10;4.10;;;3.43;;
20334;SDS011;10325;51.468;5.804;2023-03-02T09:39:39;5.77;;;3.40;;
20334;SDS011;10325;51.468;5.804;2023-03-02T09:48:27;4.83;;;3.87;;
20334;SDS011;10325;51.468;5.804;2023-03-02T09:54:14;5.40;;;3.73;;
20334;SDS011;10325;51.468;5.804;2023-03-02T09:56:55;8.60;;;3.60;;
20334;SDS011;10325;51.468;5.804;2023-03-02T09:59:28;5.20;;;3.67;;
20334;SDS011;10325;51.468;5.804;2023-03-02T10:04:52;3.40;;;3.10;;
20334;SDS011;10325;51.468;5.804;2023-03-02T10:07:31;3.40;;;3.10;;
20334;SDS011;10325;51.468;5.804;2023-03-02T10:10:23;4.47;;;3.03;;
20334;SDS011;10325;51.468;5.804;2023-03-02T10:16:18;4.00;;;3.33;;
20334;SDS011;10325;51.468;5.804;2023-03-02T10:19:03;3.87;;;3.57;;
20334;SDS011;10325;51.468;5.804;2023-03-02T10:22:08;3.80;;;3.27;;
20334;SDS011;10325;51.468;5.804;2023-03-02T10:25:11;4.87;;;3.67;;
20334;SDS011;10325;51.468;5.804;2023-03-02T10:27:49;4.03;;;3.63;;
20334;SDS011;10325;51.468;5.804;2023-03-02T10:30:30;3.77;;;3.33;;
20334;SDS011;10325;51.468;5.804;2023-03-02T10:33:22;4.77;;;3.90;;
20334;SDS011;10325;51.468;5.804;2023-03-02T10:35:57;7.90;;;3.80;;
20334;SDS011;10325;51.468;5.804;2023-03-02T10:38:30;4.27;;;3.53;;
20334;SDS011;10325;51.468;5.804;2023-03-02T10:41:13;4.13;;;3.80;;
20334;SDS011;10325;51.468;5.804;2023-03-02T10:47:25;3.90;;;3.53;;
20334;SDS011;10325;51.468;5.804;2023-03-02T10:50:23;5.23;;;4.73;;
20334;SDS011;10325;51.468;5.804;2023-03-02T10:52:52;9.47;;;5.50;;
20334;SDS011;10325;51.468;5.804;2023-03-02T10:55:29;6.13;;;4.60;;
20334;SDS011;10325;51.468;5.804;2023-03-02T10:58:04;6.37;;;5.10;;
20334;SDS011;10325;51.468;5.804;2023-03-02T11:01:04;5.53;;;4.70;;
20334;SDS011;10325;51.468;5.804;2023-03-02T11:04:10;5.17;;;4.27;;
20334;SDS011;10325;51.468;5.804;2023-03-02T11:06:47;6.53;;;4.47;;
20334;SDS011;10325;51.468;5.804;2023-03-02T11:09:15;6.40;;;4.40;;
20334;SDS011;10325;51.468;5.804;2023-03-02T11:11:52;6.20;;;4.27;;
20334;SDS011;10325;51.468;5.804;2023-03-02T11:14:42;5.90;;;4.10;;
20334;SDS011;10325;51.468;5.804;2023-03-02T11:17:47;5.00;;;4.10;;
20334;SDS011;10325;51.468;5.804;2023-03-02T11:20:13;4.80;;;4.20;;
20334;SDS011;10325;51.468;5.804;2023-03-02T11:23:20;6.17;;;4.30;;
20334;SDS011;10325;51.468;5.804;2023-03-02T11:31:52;4.73;;;4.07;;
20334;SDS011;10325;51.468;5.804;2023-03-02T11:35:09;5.53;;;4.10;;
20334;SDS011;10325;51.468;5.804;2023-03-02T11:38:18;5.57;;;4.10;;
20334;SDS011;10325;51.468;5.804;2023-03-02T11:40:59;8.17;;;4.57;;
20334;SDS011;10325;51.468;5.804;2023-03-02T11:43:40;5.20;;;3.97;;
20334;SDS011;10325;51.468;5.804;2023-03-02T11:46:13;5.80;;;4.23;;
20334;SDS011;10325;51.468;5.804;2023-03-02T11:49:08;6.13;;;3.90;;
20334;SDS011;10325;51.468;5.804;2023-03-02T11:51:53;4.70;;;4.00;;
20334;SDS011;10325;51.468;5.804;2023-03-02T11:54:40;4.60;;;3.70;;
20334;SDS011;10325;51.468;5.804;2023-03-02T11:57:17;4.77;;;4.00;;
20334;SDS011;10325;51.468;5.804;2023-03-02T11:59:54;6.13;;;4.30;;
20334;SDS011;10325;51.468;5.804;2023-03-02T12:02:32;4.73;;;3.60;;
20334;SDS011;10325;51.468;5.804;2023-03-02T12:05:24;4.83;;;3.63;;
20334;SDS011;10325;51.468;5.804;2023-03-02T12:07:56;6.07;;;3.77;;
20334;SDS011;10325;51.468;5.804;2023-03-02T12:10:31;5.93;;;4.53;;
20334;SDS011;10325;51.468;5.804;2023-03-02T12:15:54;4.57;;;3.90;;
20334;SDS011;10325;51.468;5.804;2023-03-02T12:18:29;6.47;;;4.30;;
20334;SDS011;10325;51.468;5.804;2023-03-02T12:21:20;9.93;;;4.33;;
20334;SDS011;10325;51.468;5.804;2023-03-02T12:23:55;9.27;;;3.40;;
20334;SDS011;10325;51.468;5.804;2023-03-02T12:26:30;5.07;;;3.80;;
20334;SDS011;10325;51.468;5.804;2023-03-02T12:31:49;4.57;;;4.03;;
20334;SDS011;10325;51.468;5.804;2023-03-02T12:36:52;4.33;;;3.77;;
20334;SDS011;10325;51.468;5.804;2023-03-02T12:45:45;4.63;;;3.90;;
20334;SDS011;10325;51.468;5.804;2023-03-02T12:48:41;4.93;;;3.93;;
20334;SDS011;10325;51.468;5.804;2023-03-02T12:51:22;5.77;;;3.77;;
20334;SDS011;10325;51.468;5.804;2023-03-02T12:54:01;4.37;;;3.50;;
20334;SDS011;10325;51.468;5.804;2023-03-02T12:57:14;4.10;;;3.50;;
20334;SDS011;10325;51.468;5.804;2023-03-02T12:59:55;3.97;;;3.30;;
20334;SDS011;10325;51.468;5.804;2023-03-02T13:02:28;4.40;;;4.00;;
20334;SDS011;10325;51.468;5.804;2023-03-02T13:05:04;5.40;;;3.43;;
20334;SDS011;10325;51.468;5.804;2023-03-02T13:07:39;4.30;;;3.70;;
20334;SDS011;10325;51.468;5.804;2023-03-02T13:10:27;4.47;;;3.67;;
20334;SDS011;10325;51.468;5.804;2023-03-02T13:12:59;3.73;;;3.37;;
20334;SDS011;10325;51.468;5.804;2023-03-02T13:15:31;4.27;;;3.43;;
20334;SDS011;10325;51.468;5.804;2023-03-02T13:18:02;3.87;;;3.47;;
20334;SDS011;10325;51.468;5.804;2023-03-02T13:20:33;3.70;;;3.40;;
20334;SDS011;10325;51.468;5.804;2023-03-02T13:23:00;3.80;;;3.40;;
20334;SDS011;10325;51.468;5.804;2023-03-02T13:25:32;3.37;;;3.07;;
20334;SDS011;10325;51.468;5.804;2023-03-02T13:28:03;4.23;;;2.90;;
20334;SDS011;10325;51.468;5.804;2023-03-02T13:30:54;4.20;;;3.40;;
20334;SDS011;10325;51.468;5.804;2023-03-02T13:33:47;4.27;;;3.47;;
20334;SDS011;10325;51.468;5.804;2023-03-02T13:36:28;3.60;;;3.30;;
20334;SDS011;10325;51.468;5.804;2023-03-02T13:39:06;3.67;;;3.30;;
20334;SDS011;10325;51.468;5.804;2023-03-02T13:41:59;3.50;;;3.20;;
20334;SDS011;10325;51.468;5.804;2023-03-02T13:44:32;3.90;;;3.30;;
20334;SDS011;10325;51.468;5.804;2023-03-02T13:47:20;5.03;;;2.80;;
20334;SDS011;10325;51.468;5.804;2023-03-02T13:50:07;3.73;;;2.50;;
20334;SDS011;10325;51.468;5.804;2023-03-02T13:52:44;3.57;;;2.57;;
20334;SDS011;10325;51.468;5.804;2023-03-02T13:55:14;4.10;;;2.43;;
20334;SDS011;10325;51.468;5.804;2023-03-02T13:57:48;2.20;;;2.00;;
20334;SDS011;10325;51.468;5.804;2023-03-02T14:00:25;2.37;;;2.13;;
20334;SDS011;10325;51.468;5.804;2023-03-02T14:03:28;2.83;;;2.50;;
20334;SDS011;10325;51.468;5.804;2023-03-02T14:05:58;2.47;;;2.27;;
20334;SDS011;10325;51.468;5.804;2023-03-02T14:08:29;2.60;;;2.40;;
20334;SDS011;10325;51.468;5.804;2023-03-02T14:11:00;2.30;;;2.10;;
20334;SDS011;10325;51.468;5.804;2023-03-02T14:13:41;2.50;;;2.30;;
20334;SDS011;10325;51.468;5.804;2023-03-02T14:16:15;1.97;;;1.83;;
20334;SDS011;10325;51.468;5.804;2023-03-02T14:18:48;2.57;;;2.27;;
20334;SDS011;10325;51.468;5.804;2023-03-02T14:21:36;2.80;;;2.20;;
20334;SDS011;10325;51.468;5.804;2023-03-02T14:24:06;2.33;;;2.13;;
20334;SDS011;10325;51.468;5.804;2023-03-02T14:26:38;2.27;;;2.07;;
20334;SDS011;10325;51.468;5.804;2023-03-02T14:29:26;2.77;;;2.10;;
20334;SDS011;10325;51.468;5.804;2023-03-02T14:32:04;2.40;;;2.20;;
20334;SDS011;10325;51.468;5.804;2023-03-02T14:34:38;2.37;;;1.80;;
20334;SDS011;10325;51.468;5.804;2023-03-02T14:37:13;2.43;;;2.20;;
20334;SDS011;10325;51.468;5.804;2023-03-02T14:39:54;2.73;;;2.10;;
20334;SDS011;10325;51.468;5.804;2023-03-02T14:42:41;2.73;;;2.53;;
20334;SDS011;10325;51.468;5.804;2023-03-02T14:45:09;3.63;;;2.90;;
20334;SDS011;10325;51.468;5.804;2023-03-02T14:47:40;7.17;;;2.80;;
20334;SDS011;10325;51.468;5.804;2023-03-02T14:50:11;2.83;;;2.43;;
20334;SDS011;10325;51.468;5.804;2023-03-02T14:52:42;3.50;;;3.10;;
20334;SDS011;10325;51.468;5.804;2023-03-02T14:55:36;2.60;;;2.40;;
20334;SDS011;10325;51.468;5.804;2023-03-02T14:58:03;2.17;;;1.97;;
20334;SDS011;10325;51.468;5.804;2023-03-02T15:00:42;2.77;;;2.50;;
20334;SDS011;10325;51.468;5.804;2023-03-02T15:03:12;2.90;;;2.60;;
20334;SDS011;10325;51.468;5.804;2023-03-02T15:05:57;3.23;;;2.83;;
20334;SDS011;10325;51.468;5.804;2023-03-02T15:08:31;6.20;;;3.27;;
20334;SDS011;10325;51.468;5.804;2023-03-02T15:11:01;3.70;;;3.13;;
20334;SDS011;10325;51.468;5.804;2023-03-02T15:13:33;3.47;;;3.17;;
20334;SDS011;10325;51.468;5.804;2023-03-02T15:16:03;3.27;;;2.97;;
20334;SDS011;10325;51.468;5.804;2023-03-02T15:18:32;4.43;;;2.60;;
20334;SDS011;10325;51.468;5.804;2023-03-02T15:21:02;3.23;;;2.60;;
20334;SDS011;10325;51.468;5.804;2023-03-02T15:23:31;3.00;;;2.43;;
20334;SDS011;10325;51.468;5.804;2023-03-02T15:26:04;3.13;;;2.63;;
20334;SDS011;10325;51.468;5.804;2023-03-02T15:28:33;3.10;;;2.80;;
20334;SDS011;10325;51.468;5.804;2023-03-02T15:31:08;3.47;;;2.47;;
20334;SDS011;10325;51.468;5.804;2023-03-02T15:33:40;3.87;;;2.80;;
20334;SDS011;10325;51.468;5.804;2023-03-02T15:36:10;3.20;;;2.90;;
20334;SDS011;10325;51.468;5.804;2023-03-02T15:38:39;3.47;;;2.97;;
20334;SDS011;10325;51.468;5.804;2023-03-02T15:41:11;2.90;;;2.53;;
20334;SDS011;10325;51.468;5.804;2023-03-02T15:43:42;3.37;;;2.90;;
20334;SDS011;10325;51.468;5.804;2023-03-02T15:46:26;3.17;;;2.50;;
20334;SDS011;10325;51.468;5.804;2023-03-02T15:48:54;3.53;;;2.70;;
20334;SDS011;10325;51.468;5.804;2023-03-02T15:51:24;3.20;;;2.90;;
20334;SDS011;10325;51.468;5.804;2023-03-02T15:53:53;2.60;;;2.40;;
20334;SDS011;10325;51.468;5.804;2023-03-02T15:56:26;2.80;;;2.30;;
20334;SDS011;10325;51.468;5.804;2023-03-02T15:59:10;3.37;;;2.80;;
20334;SDS011;10325;51.468;5.804;2023-03-02T16:01:38;3.43;;;2.77;;
20334;SDS011;10325;51.468;5.804;2023-03-02T16:04:09;2.93;;;2.70;;
20334;SDS011;10325;51.468;5.804;2023-03-02T16:06:40;3.17;;;2.87;;
20334;SDS011;10325;51.468;5.804;2023-03-02T16:09:11;2.80;;;2.50;;
20334;SDS011;10325;51.468;5.804;2023-03-02T16:11:41;3.77;;;2.53;;
20334;SDS011;10325;51.468;5.804;2023-03-02T16:14:12;3.00;;;2.70;;
20334;SDS011;10325;51.468;5.804;2023-03-02T16:16:44;3.13;;;2.83;;
20334;SDS011;10325;51.468;5.804;2023-03-02T16:19:18;2.50;;;2.30;;
20334;SDS011;10325;51.468;5.804;2023-03-02T16:21:46;3.00;;;2.70;;